AIB001 LFBO-LFPG
Flight info
| Callsign | AIB001 |
|---|---|
| Flight time | N/A |
| Altitude | 34000 |
| Route | FISTO DCT POI/N0400F300 DCT PEPAX UT182 KEPER |
| Aircraft | A343/H-SDE2E3FGHIJ4J5M1RWXY/LB1D1 |
Departure
| Time | N/A |
|---|---|
| Airport | Toulouse-Blagnac Airport (LFBO) |
Arrival
| Time | 2026-05-05 15:04 |
|---|---|
| Airport | Charles de Gaulle International Airport (LFPG) |
| Time | Latitude | Longitude | Altitude | Speed | Heading |
|---|---|---|---|---|---|
| 2026-05-05 14:31 | 46.15852 | 0.48917 | 33871 ft | 471 kts | 342° |
| 2026-05-05 14:31 | 46.18962 | 0.47520 | 33894 ft | 471 kts | 342° |
| 2026-05-05 14:31 | 46.25224 | 0.44705 | 33855 ft | 471 kts | 342° |
| 2026-05-05 14:32 | 46.31495 | 0.41879 | 33860 ft | 472 kts | 342° |
| 2026-05-05 14:32 | 46.37756 | 0.39050 | 33850 ft | 472 kts | 343° |
| 2026-05-05 14:33 | 46.43985 | 0.36229 | 33848 ft | 471 kts | 343° |
| 2026-05-05 14:33 | 46.50242 | 0.33390 | 33849 ft | 472 kts | 343° |
| 2026-05-05 14:34 | 46.56563 | 0.30912 | 33848 ft | 470 kts | 353° |
| 2026-05-05 14:34 | 46.63048 | 0.31114 | 33845 ft | 465 kts | 10° |
| 2026-05-05 14:35 | 46.69332 | 0.32797 | 33851 ft | 464 kts | 13° |
| 2026-05-05 14:35 | 46.75650 | 0.34789 | 33843 ft | 464 kts | 14° |
| 2026-05-05 14:36 | 46.84565 | 0.37610 | 33814 ft | 466 kts | 14° |
| 2026-05-05 14:36 | 46.97185 | 0.41517 | 33803 ft | 467 kts | 13° |
| 2026-05-05 14:37 | 47.10065 | 0.44197 | 33836 ft | 471 kts | 356° |
| 2026-05-05 14:37 | 47.18688 | 0.42497 | 33810 ft | 472 kts | 352° |
| 2026-05-05 14:38 | 47.25098 | 0.40936 | 33482 ft | 475 kts | 352° |
| 2026-05-05 14:38 | 47.28358 | 0.40132 | 33238 ft | 473 kts | 352° |
| 2026-05-05 14:38 | 47.31602 | 0.39331 | 32960 ft | 472 kts | 352° |
| 2026-05-05 14:39 | 47.34853 | 0.38529 | 32667 ft | 473 kts | 352° |
| 2026-05-05 14:39 | 47.38070 | 0.37735 | 32396 ft | 472 kts | 352° |
| 2026-05-05 14:39 | 47.41325 | 0.36932 | 31971 ft | 471 kts | 353° |
| 2026-05-05 14:39 | 47.44538 | 0.36136 | 31098 ft | 471 kts | 353° |
| 2026-05-05 14:40 | 47.47786 | 0.35329 | 30362 ft | 469 kts | 354° |
| 2026-05-05 14:40 | 47.50984 | 0.34546 | 29715 ft | 463 kts | 354° |
| 2026-05-05 14:40 | 47.54141 | 0.33780 | 29056 ft | 456 kts | 354° |
| 2026-05-05 14:40 | 47.57251 | 0.33022 | 28471 ft | 450 kts | 354° |
| 2026-05-05 14:41 | 47.60323 | 0.32269 | 27856 ft | 445 kts | 353° |
| 2026-05-05 14:41 | 47.63371 | 0.31519 | 27272 ft | 441 kts | 353° |
| 2026-05-05 14:41 | 47.66388 | 0.30773 | 26667 ft | 437 kts | 353° |
| 2026-05-05 14:41 | 47.69376 | 0.30032 | 26066 ft | 433 kts | 353° |
| 2026-05-05 14:42 | 47.72350 | 0.29292 | 25473 ft | 430 kts | 353° |
| 2026-05-05 14:42 | 47.75250 | 0.28569 | 24877 ft | 426 kts | 352° |
| 2026-05-05 14:42 | 47.78163 | 0.28098 | 24274 ft | 419 kts | 1° |
| 2026-05-05 14:42 | 47.81028 | 0.28669 | 23696 ft | 411 kts | 18° |
| 2026-05-05 14:43 | 47.83593 | 0.30357 | 23435 ft | 398 kts | 32° |
| 2026-05-05 14:43 | 47.85897 | 0.32598 | 23127 ft | 397 kts | 36° |
| 2026-05-05 14:43 | 47.88168 | 0.34971 | 22807 ft | 398 kts | 36° |
| 2026-05-05 14:43 | 47.90422 | 0.37346 | 22514 ft | 397 kts | 36° |
| 2026-05-05 14:44 | 47.92681 | 0.39725 | 22232 ft | 396 kts | 36° |
| 2026-05-05 14:44 | 47.94881 | 0.42121 | 22101 ft | 385 kts | 40° |
| 2026-05-05 14:44 | 47.96927 | 0.44656 | 21972 ft | 382 kts | 40° |
| 2026-05-05 14:44 | 47.99110 | 0.47037 | 21929 ft | 394 kts | 36° |
| 2026-05-05 14:45 | 48.01378 | 0.49386 | 21793 ft | 399 kts | 36° |
| 2026-05-05 14:45 | 48.03622 | 0.51710 | 21531 ft | 395 kts | 36° |
| 2026-05-05 14:45 | 48.05895 | 0.54077 | 21266 ft | 393 kts | 36° |
| 2026-05-05 14:45 | 48.08104 | 0.56386 | 21004 ft | 390 kts | 36° |
| 2026-05-05 14:46 | 48.10327 | 0.58715 | 20746 ft | 390 kts | 36° |
| 2026-05-05 14:46 | 48.12543 | 0.61039 | 20494 ft | 389 kts | 36° |
| 2026-05-05 14:46 | 48.14759 | 0.63368 | 20238 ft | 388 kts | 36° |
| 2026-05-05 14:46 | 48.16960 | 0.65683 | 19976 ft | 387 kts | 36° |
| 2026-05-05 14:47 | 48.19161 | 0.68002 | 19735 ft | 386 kts | 36° |
| 2026-05-05 14:47 | 48.21357 | 0.70318 | 19480 ft | 385 kts | 36° |
| 2026-05-05 14:47 | 48.23548 | 0.72634 | 19252 ft | 384 kts | 36° |
| 2026-05-05 14:47 | 48.25720 | 0.74930 | 19008 ft | 380 kts | 37° |
| 2026-05-05 14:48 | 48.27877 | 0.77209 | 18773 ft | 377 kts | 37° |
| 2026-05-05 14:48 | 48.29993 | 0.79449 | 18531 ft | 377 kts | 37° |
| 2026-05-05 14:48 | 48.32131 | 0.81717 | 18290 ft | 376 kts | 37° |
| 2026-05-05 14:48 | 48.34139 | 0.84162 | 17929 ft | 370 kts | 47° |
| 2026-05-05 14:49 | 48.35655 | 0.87206 | 17425 ft | 365 kts | 61° |
| 2026-05-05 14:49 | 48.36858 | 0.90563 | 16870 ft | 364 kts | 64° |
| 2026-05-05 14:49 | 48.38011 | 0.93937 | 16330 ft | 362 kts | 64° |
| 2026-05-05 14:49 | 48.39157 | 0.97285 | 15790 ft | 359 kts | 64° |
| 2026-05-05 14:50 | 48.40304 | 1.00624 | 15254 ft | 358 kts | 63° |
| 2026-05-05 14:50 | 48.41434 | 1.03907 | 14713 ft | 356 kts | 63° |
| 2026-05-05 14:50 | 48.42555 | 1.07148 | 14408 ft | 355 kts | 64° |
| 2026-05-05 14:50 | 48.43828 | 1.10857 | 14040 ft | 354 kts | 63° |
| 2026-05-05 14:51 | 48.46079 | 1.17419 | 13364 ft | 345 kts | 63° |
| 2026-05-05 14:51 | 48.48264 | 1.23795 | 12720 ft | 342 kts | 63° |
| 2026-05-05 14:51 | 48.50368 | 1.29946 | 12348 ft | 318 kts | 63° |
| 2026-05-05 14:51 | 48.52295 | 1.35570 | 11977 ft | 295 kts | 63° |
| 2026-05-05 14:52 | 48.54093 | 1.40810 | 11104 ft | 280 kts | 63° |
| 2026-05-05 14:52 | 48.55899 | 1.46085 | 10832 ft | 284 kts | 63° |
| 2026-05-05 14:52 | 48.57159 | 1.49768 | 10455 ft | 280 kts | 63° |
| 2026-05-05 14:52 | 48.58979 | 1.54674 | 9854 ft | 282 kts | 50° |
| 2026-05-05 14:53 | 48.62505 | 1.56439 | 9305 ft | 285 kts | 347° |
| 2026-05-05 14:53 | 48.64514 | 1.55723 | 9115 ft | 283 kts | 6° |
| 2026-05-05 14:53 | 48.66397 | 1.56417 | 9064 ft | 283 kts | 23° |
| 2026-05-05 14:53 | 48.68190 | 1.57396 | 8920 ft | 276 kts | 23° |
| 2026-05-05 14:54 | 48.69945 | 1.58538 | 8565 ft | 276 kts | 28° |
| 2026-05-05 14:54 | 48.71680 | 1.59835 | 8203 ft | 274 kts | 28° |
| 2026-05-05 14:54 | 48.73375 | 1.61119 | 7868 ft | 272 kts | 28° |
| 2026-05-05 14:54 | 48.75061 | 1.62399 | 7483 ft | 272 kts | 28° |
| 2026-05-05 14:55 | 48.78350 | 1.64893 | 6839 ft | 266 kts | 27° |
| 2026-05-05 14:55 | 48.81561 | 1.67328 | 6208 ft | 262 kts | 27° |
| 2026-05-05 14:55 | 48.84852 | 1.69827 | 5424 ft | 259 kts | 26° |
| 2026-05-05 14:55 | 48.89981 | 1.73727 | 4294 ft | 252 kts | 27° |
| 2026-05-05 14:56 | 48.96133 | 1.78412 | 3999 ft | 249 kts | 27° |
| 2026-05-05 14:56 | 48.98347 | 1.82012 | 3992 ft | 253 kts | 66° |
| 2026-05-05 14:56 | 48.98734 | 1.84628 | 3997 ft | 256 kts | 81° |
| 2026-05-05 14:56 | 48.98905 | 1.87349 | 3995 ft | 258 kts | 83° |
| 2026-05-05 14:57 | 48.99052 | 1.90062 | 4008 ft | 257 kts | 83° |
| 2026-05-05 14:57 | 48.99235 | 1.93272 | 4004 ft | 258 kts | 82° |
| 2026-05-05 14:57 | 48.99562 | 1.98695 | 4010 ft | 257 kts | 82° |
| 2026-05-05 14:57 | 48.99870 | 2.04133 | 4005 ft | 256 kts | 82° |
| 2026-05-05 14:58 | 49.00155 | 2.09385 | 3998 ft | 232 kts | 83° |
| 2026-05-05 14:58 | 49.00390 | 2.13878 | 3992 ft | 204 kts | 82° |
| 2026-05-05 14:58 | 49.00609 | 2.18025 | 4001 ft | 197 kts | 83° |
| 2026-05-05 14:58 | 49.00833 | 2.22183 | 4002 ft | 197 kts | 81° |
| 2026-05-05 14:59 | 49.01021 | 2.25365 | 3935 ft | 198 kts | 82° |
| 2026-05-05 14:59 | 49.01129 | 2.27472 | 3739 ft | 200 kts | 83° |
| 2026-05-05 14:59 | 49.01237 | 2.29611 | 3447 ft | 208 kts | 82° |
| 2026-05-05 14:59 | 49.01354 | 2.31823 | 3135 ft | 211 kts | 81° |
| 2026-05-05 15:00 | 49.01482 | 2.34028 | 2823 ft | 205 kts | 81° |
| 2026-05-05 15:00 | 49.01556 | 2.35413 | 2672 ft | 190 kts | 82° |
| 2026-05-05 15:00 | 49.01681 | 2.37888 | 2336 ft | 162 kts | 80° |
| 2026-05-05 15:00 | 49.01771 | 2.39511 | 2111 ft | 147 kts | 79° |
| 2026-05-05 15:01 | 49.01850 | 2.40987 | 1918 ft | 131 kts | 79° |
| 2026-05-05 15:01 | 49.01921 | 2.42308 | 1755 ft | 122 kts | 77° |
| 2026-05-05 15:01 | 49.01992 | 2.43587 | 1594 ft | 121 kts | 79° |
| 2026-05-05 15:01 | 49.02060 | 2.44865 | 1432 ft | 120 kts | 78° |
| 2026-05-05 15:02 | 49.02130 | 2.46132 | 1297 ft | 120 kts | 78° |
| 2026-05-05 15:02 | 49.02189 | 2.47142 | 1135 ft | 124 kts | 82° |
| 2026-05-05 15:02 | 49.02248 | 2.48446 | 911 ft | 121 kts | 81° |
| 2026-05-05 15:02 | 49.02300 | 2.49701 | 777 ft | 119 kts | 81° |
| 2026-05-05 15:03 | 49.02376 | 2.50945 | 586 ft | 119 kts | 79° |
| 2026-05-05 15:03 | 49.02447 | 2.52177 | 422 ft | 115 kts | 81° |
| 2026-05-05 15:03 | 49.02516 | 2.53331 | 368 ft | 104 kts | 84° |
| 2026-05-05 15:03 | 49.02564 | 2.54177 | 359 ft | 58 kts | 84° |
| 2026-05-05 15:04 | 49.02521 | 2.54691 | 366 ft | 45 kts | 105° |
| 2026-05-05 15:04 | 49.02449 | 2.55124 | 367 ft | 40 kts | 100° |
| 2026-05-05 15:04 | 49.02462 | 2.55388 | 365 ft | 34 kts | 85° |
| 2026-05-05 15:05 | 49.02462 | 2.55524 | 365 ft | 3 kts | 95° |
| 2026-05-05 15:05 | 49.02459 | 2.55561 | 364 ft | 4 kts | 100° |
| 2026-05-05 15:06 | 49.02429 | 2.55606 | 365 ft | 7 kts | 154° |
| 2026-05-05 15:06 | 49.02352 | 2.55621 | 361 ft | 13 kts | 174° |
| 2026-05-05 15:06 | 49.02266 | 2.55633 | 363 ft | 12 kts | 175° |
| 2026-05-05 15:06 | 49.02184 | 2.55643 | 364 ft | 12 kts | 175° |
| 2026-05-05 15:07 | 49.02105 | 2.55654 | 365 ft | 11 kts | 175° |
| 2026-05-05 15:07 | 49.02002 | 2.55665 | 359 ft | 21 kts | 176° |
| 2026-05-05 15:07 | 49.01895 | 2.55612 | 363 ft | 12 kts | 242° |
| 2026-05-05 15:07 | 49.01880 | 2.55438 | 363 ft | 26 kts | 265° |
| 2026-05-05 15:08 | 49.01864 | 2.55137 | 364 ft | 28 kts | 265° |
| 2026-05-05 15:08 | 49.01849 | 2.54873 | 359 ft | 26 kts | 265° |
| 2026-05-05 15:08 | 49.01835 | 2.54601 | 360 ft | 24 kts | 265° |
| 2026-05-05 15:08 | 49.01822 | 2.54360 | 361 ft | 23 kts | 265° |
| 2026-05-05 15:09 | 49.01815 | 2.54282 | 367 ft | 1 kts | 248° |
| 2026-05-05 15:09 | 49.01776 | 2.54251 | 366 ft | 8 kts | 199° |
| 2026-05-05 15:09 | 49.01743 | 2.54216 | 367 ft | 4 kts | 226° |
| 2026-05-05 15:09 | 49.01726 | 2.54189 | 367 ft | 0 kts | 226° |
| 2026-05-05 15:10 | 49.01725 | 2.54187 | 367 ft | 0 kts | 226° |